createdAt,value
2022-12-04T00:02:08.502Z,24.68
2022-12-04T00:04:35.356Z,24.68
2022-12-04T00:07:02.521Z,24.68
2022-12-04T00:09:29.200Z,24.67
2022-12-04T00:11:55.988Z,24.67
2022-12-04T00:14:22.718Z,24.66
2022-12-04T00:16:49.440Z,24.65
2022-12-04T00:19:16.739Z,24.65
2022-12-04T00:21:43.519Z,24.66
2022-12-04T00:24:10.278Z,24.67
2022-12-04T00:26:37.029Z,24.66
2022-12-04T00:29:03.943Z,24.65
2022-12-04T00:31:31.534Z,24.66
2022-12-04T00:34:00.356Z,24.65
2022-12-04T00:36:29.643Z,24.66
2022-12-04T00:38:58.492Z,24.66
2022-12-04T00:41:26.344Z,24.65
2022-12-04T00:43:53.129Z,24.65
2022-12-04T00:46:20.426Z,24.67
2022-12-04T00:48:47.384Z,24.66
2022-12-04T00:51:22.079Z,24.68
2022-12-04T00:53:48.896Z,24.67
2022-12-04T00:56:19.316Z,24.69
2022-12-04T00:58:46.461Z,24.70
2022-12-04T01:01:15.992Z,24.71
2022-12-04T01:03:43.576Z,24.72
2022-12-04T01:06:25.813Z,24.73
2022-12-04T01:08:54.072Z,24.72
2022-12-04T01:11:22.648Z,24.73
2022-12-04T01:13:49.611Z,24.73
2022-12-04T01:16:33.355Z,24.74
2022-12-04T01:19:01.885Z,24.73
2022-12-04T01:21:29.040Z,24.74
2022-12-04T01:23:55.951Z,24.74
2022-12-04T01:26:22.673Z,24.75
2022-12-04T01:28:49.354Z,24.76
2022-12-04T01:31:18.715Z,24.77
2022-12-04T01:33:45.978Z,24.77
2022-12-04T01:36:23.585Z,24.78
2022-12-04T01:38:50.835Z,24.78
2022-12-04T01:41:21.571Z,24.80
2022-12-04T01:44:13.204Z,24.80
2022-12-04T01:46:41.641Z,24.81
2022-12-04T01:49:17.543Z,24.81
2022-12-04T01:51:49.927Z,24.81
2022-12-04T01:54:24.767Z,24.81
2022-12-04T01:56:59.922Z,24.82
2022-12-04T01:59:30.842Z,24.82
2022-12-04T02:02:04.480Z,24.82
2022-12-04T02:04:31.994Z,24.81
2022-12-04T02:06:58.812Z,24.82
2022-12-04T02:09:26.968Z,24.82
2022-12-04T02:12:35.871Z,24.83
2022-12-04T02:15:10.317Z,24.83
2022-12-04T02:17:41.702Z,24.84
2022-12-04T02:20:14.182Z,24.83
2022-12-04T02:22:53.094Z,24.85
2022-12-04T02:25:49.347Z,24.85
2022-12-04T02:28:28.622Z,24.85
2022-12-04T02:31:01.337Z,24.86
2022-12-04T02:33:41.362Z,24.85
2022-12-04T02:36:13.274Z,24.85
2022-12-04T02:38:48.821Z,24.86
2022-12-04T02:41:45.042Z,24.87
2022-12-04T02:44:29.854Z,24.86
2022-12-04T02:47:00.974Z,24.86
2022-12-04T02:49:35.175Z,24.86
2022-12-04T02:52:08.093Z,24.86
2022-12-04T02:54:40.174Z,24.86
2022-12-04T02:57:13.456Z,24.88
2022-12-04T02:59:43.545Z,24.87
2022-12-04T03:02:25.451Z,24.88
2022-12-04T03:04:56.086Z,24.89
2022-12-04T03:07:30.603Z,24.86
2022-12-04T03:10:06.915Z,24.89
2022-12-04T03:13:13.690Z,24.89
2022-12-04T03:15:58.281Z,24.89
2022-12-04T03:18:37.853Z,24.88
2022-12-04T03:21:10.815Z,24.87
2022-12-04T03:24:12.316Z,24.88
2022-12-04T03:26:41.800Z,24.88
2022-12-04T03:29:48.918Z,24.88
2022-12-04T03:32:31.703Z,24.88
2022-12-04T03:35:02.208Z,24.89
2022-12-04T03:37:36.285Z,24.85
2022-12-04T03:40:09.310Z,24.89
2022-12-04T03:42:42.146Z,24.90
2022-12-04T03:45:29.221Z,24.89
2022-12-04T03:48:06.714Z,24.90
2022-12-04T03:50:38.598Z,24.90
2022-12-04T03:53:23.735Z,24.92
2022-12-04T03:56:07.492Z,24.91
2022-12-04T03:58:37.991Z,24.91
2022-12-04T04:01:07.715Z,24.89
2022-12-04T04:03:43.582Z,24.92
2022-12-04T04:06:16.667Z,24.93
2022-12-04T04:08:48.489Z,24.94
2022-12-04T04:11:26.522Z,24.93
2022-12-04T04:14:05.674Z,24.95
2022-12-04T04:16:35.527Z,24.96
2022-12-04T04:19:03.611Z,24.95
2022-12-04T04:21:34.699Z,24.96
2022-12-04T04:24:03.268Z,24.96
2022-12-04T04:26:35.506Z,24.97
2022-12-04T04:29:02.876Z,24.98
2022-12-04T04:32:13.927Z,24.98
2022-12-04T04:35:18.469Z,24.98
2022-12-04T04:37:57.975Z,24.99
2022-12-04T04:40:38.613Z,24.99
2022-12-04T04:43:11.279Z,24.98
2022-12-04T04:45:47.679Z,24.98
2022-12-04T04:48:26.406Z,24.98
2022-12-04T04:50:54.494Z,24.98
2022-12-04T04:53:28.370Z,24.98
2022-12-04T04:55:55.412Z,24.98
2022-12-04T04:58:22.467Z,24.99
2022-12-04T05:01:07.936Z,25.00
2022-12-04T05:03:35.034Z,25.00
2022-12-04T05:06:01.986Z,24.97
2022-12-04T05:08:28.760Z,24.97
2022-12-04T05:10:55.556Z,24.97
2022-12-04T05:13:22.839Z,24.98
2022-12-04T05:16:01.349Z,24.97
2022-12-04T05:18:28.694Z,24.98
2022-12-04T05:20:55.477Z,24.99
2022-12-04T05:23:22.690Z,24.99
2022-12-04T05:25:49.723Z,24.98
2022-12-04T05:28:16.897Z,24.99
2022-12-04T05:30:43.630Z,24.99
2022-12-04T05:33:10.739Z,24.99
2022-12-04T05:35:37.420Z,25.00
2022-12-04T05:38:06.019Z,24.99
2022-12-04T05:40:32.729Z,24.99
2022-12-04T05:43:00.195Z,24.99
2022-12-04T05:45:26.852Z,24.99
2022-12-04T05:47:53.497Z,24.98
2022-12-04T05:50:20.313Z,24.97
2022-12-04T05:52:47.297Z,24.96
2022-12-04T05:55:13.920Z,24.94
2022-12-04T05:57:40.719Z,24.94
2022-12-04T06:00:08.212Z,24.93
2022-12-04T06:02:35.154Z,24.93
2022-12-04T06:05:01.940Z,24.93
2022-12-04T06:07:28.694Z,24.92
2022-12-04T06:09:56.048Z,24.92
2022-12-04T06:12:23.004Z,24.91
2022-12-04T06:14:49.808Z,24.91
2022-12-04T06:17:16.738Z,24.90
2022-12-04T06:19:43.566Z,24.90
2022-12-04T06:22:10.271Z,24.88
2022-12-04T06:24:36.948Z,24.89
2022-12-04T06:27:26.596Z,24.88
2022-12-04T06:29:50.368Z,24.88
2022-12-04T06:32:21.429Z,24.88
2022-12-04T06:34:52.903Z,24.86
2022-12-04T06:37:20.083Z,24.81
2022-12-04T06:39:46.832Z,24.76
2022-12-04T06:42:13.666Z,24.72
2022-12-04T06:44:40.488Z,24.66
2022-12-04T06:47:08.109Z,24.60
2022-12-04T06:49:35.011Z,24.54
2022-12-04T06:52:01.802Z,24.48
2022-12-04T06:54:28.492Z,24.43
2022-12-04T06:56:55.470Z,24.39
2022-12-04T06:59:22.198Z,24.35
2022-12-04T07:01:48.925Z,24.30
2022-12-04T07:04:15.668Z,24.22
2022-12-04T07:06:42.688Z,24.14
2022-12-04T07:09:15.224Z,24.08
2022-12-04T07:11:43.538Z,23.99
2022-12-04T07:14:11.105Z,23.95
2022-12-04T07:16:41.472Z,23.89
2022-12-04T07:19:13.896Z,23.85
2022-12-04T07:21:41.709Z,23.79
2022-12-04T07:24:09.716Z,23.76
2022-12-04T07:26:36.386Z,23.70
2022-12-04T07:29:03.049Z,23.66
2022-12-04T07:31:30.243Z,23.62
2022-12-04T07:33:57.672Z,23.59
2022-12-04T07:36:25.959Z,23.55
2022-12-04T07:38:54.399Z,23.48
2022-12-04T07:41:21.538Z,23.39
2022-12-04T07:43:48.219Z,23.29
2022-12-04T07:46:21.279Z,23.24
2022-12-04T07:48:48.181Z,23.17
2022-12-04T07:51:18.073Z,23.12
2022-12-04T07:53:45.591Z,23.09
2022-12-04T07:56:13.528Z,23.08
2022-12-04T07:58:42.102Z,23.05
2022-12-04T08:01:26.984Z,23.04
2022-12-04T08:03:56.611Z,23.04
2022-12-04T08:06:25.218Z,23.05
2022-12-04T08:08:52.924Z,23.07
2022-12-04T08:11:25.010Z,23.07
2022-12-04T08:13:59.472Z,23.08
2022-12-04T08:16:28.109Z,23.08
2022-12-04T08:18:55.769Z,23.08
2022-12-04T08:21:24.929Z,23.08
2022-12-04T08:23:53.509Z,23.09
2022-12-04T08:26:21.995Z,23.10
2022-12-04T08:28:49.019Z,23.14
2022-12-04T08:31:21.910Z,23.16
2022-12-04T08:33:50.520Z,23.19
2022-12-04T08:36:20.754Z,23.21
2022-12-04T08:38:48.620Z,23.20
2022-12-04T08:41:18.381Z,23.22
2022-12-04T08:43:45.331Z,23.24
2022-12-04T08:46:14.849Z,23.24
2022-12-04T08:48:42.203Z,23.25
2022-12-04T08:51:20.678Z,23.26
2022-12-04T08:53:47.570Z,23.26
2022-12-04T08:56:14.555Z,23.25
2022-12-04T08:58:41.486Z,23.23
2022-12-04T09:01:11.091Z,23.18
2022-12-04T09:03:38.100Z,23.16
2022-12-04T09:06:06.312Z,23.13
2022-12-04T09:08:33.606Z,23.10
2022-12-04T09:11:17.497Z,23.08
2022-12-04T09:13:45.179Z,23.05
2022-12-04T09:16:19.254Z,23.03
2022-12-04T09:18:46.469Z,23.00
2022-12-04T09:21:15.331Z,22.98
2022-12-04T09:23:42.854Z,22.96
2022-12-04T09:26:19.206Z,22.95
2022-12-04T09:28:46.552Z,22.91
2022-12-04T09:31:13.411Z,22.90
2022-12-04T09:33:40.114Z,22.88
2022-12-04T09:36:07.277Z,22.86
2022-12-04T09:38:34.221Z,22.83
2022-12-04T09:41:36.154Z,22.83
2022-12-04T09:44:21.649Z,22.81
2022-12-04T09:46:59.999Z,22.80
2022-12-04T09:49:35.561Z,22.79
2022-12-04T09:52:09.312Z,22.77
2022-12-04T09:54:42.702Z,22.76
2022-12-04T09:57:42.693Z,22.72
2022-12-04T10:00:14.573Z,22.71
2022-12-04T10:02:45.590Z,22.71
2022-12-04T10:05:19.631Z,22.70
2022-12-04T10:08:01.361Z,22.70
2022-12-04T10:10:39.532Z,22.68
2022-12-04T10:13:59.958Z,22.65
2022-12-04T10:17:04.037Z,22.63
2022-12-04T10:19:39.720Z,22.61
2022-12-04T10:22:25.145Z,22.59
2022-12-04T10:24:55.172Z,22.56
2022-12-04T10:27:44.378Z,22.55
2022-12-04T10:30:22.313Z,22.54
2022-12-04T10:32:56.403Z,22.52
2022-12-04T10:35:27.361Z,22.51
2022-12-04T10:37:58.834Z,22.50
2022-12-04T10:40:32.675Z,22.49
2022-12-04T10:43:28.444Z,22.48
2022-12-04T10:45:55.909Z,22.47
2022-12-04T10:48:36.528Z,22.47
2022-12-04T10:51:03.504Z,22.43
2022-12-04T10:53:33.517Z,22.44
2022-12-04T10:56:14.912Z,22.43
2022-12-04T10:58:41.872Z,22.39
2022-12-04T11:01:12.290Z,22.39
2022-12-04T11:03:39.778Z,22.38
2022-12-04T11:06:10.151Z,22.37
2022-12-04T11:08:41.312Z,22.37
2022-12-04T11:11:16.176Z,22.36
2022-12-04T11:13:43.220Z,22.34
2022-12-04T11:16:34.321Z,22.34
2022-12-04T11:19:01.113Z,22.33
2022-12-04T11:21:30.774Z,22.33
2022-12-04T11:23:58.179Z,22.31
2022-12-04T11:26:37.507Z,22.30
2022-12-04T11:29:07.637Z,22.29
2022-12-04T11:31:34.461Z,22.28
2022-12-04T11:34:08.931Z,22.28
2022-12-04T11:36:40.288Z,22.30
2022-12-04T11:39:14.205Z,22.39
2022-12-04T11:41:42.000Z,22.48
2022-12-04T11:44:29.845Z,22.59
2022-12-04T11:46:59.569Z,22.69
2022-12-04T11:49:27.439Z,22.75
2022-12-04T11:52:12.575Z,22.84
2022-12-04T11:55:07.401Z,22.90
2022-12-04T11:57:37.161Z,22.94
2022-12-04T12:00:16.457Z,22.97
2022-12-04T12:03:25.144Z,23.00
2022-12-04T12:06:07.576Z,23.03
2022-12-04T12:08:46.171Z,23.04
2022-12-04T12:11:26.329Z,23.05
2022-12-04T12:14:07.582Z,23.08
2022-12-04T12:19:40.070Z,23.09
2022-12-04T12:22:25.163Z,23.09
2022-12-04T12:24:59.963Z,23.10
2022-12-04T12:27:50.113Z,23.11
2022-12-04T12:30:22.082Z,23.11
2022-12-04T12:33:10.373Z,23.11
2022-12-04T12:36:06.592Z,23.12
2022-12-04T12:38:47.015Z,23.11
2022-12-04T12:41:28.176Z,23.11
2022-12-04T12:44:21.170Z,23.10
2022-12-04T12:46:52.877Z,23.10
2022-12-04T12:49:35.307Z,23.09
2022-12-04T12:52:15.308Z,23.09
2022-12-04T12:55:23.667Z,23.07
2022-12-04T12:58:04.860Z,23.07
2022-12-04T13:00:37.178Z,23.05
2022-12-04T13:03:12.302Z,23.04
2022-12-04T13:05:46.935Z,23.03
2022-12-04T13:08:30.300Z,23.02
2022-12-04T13:11:12.608Z,23.01
2022-12-04T13:13:48.470Z,23.00
2022-12-04T13:16:21.678Z,23.00
2022-12-04T13:18:55.060Z,23.00
2022-12-04T13:21:57.251Z,22.99
2022-12-04T13:24:48.995Z,23.00
2022-12-04T13:27:37.516Z,22.97
2022-12-04T13:30:23.417Z,22.96
2022-12-04T13:33:01.248Z,22.94
2022-12-04T13:36:01.884Z,22.95
2022-12-04T13:39:03.602Z,22.98
2022-12-04T13:41:35.748Z,22.99
2022-12-04T13:44:07.084Z,23.01
2022-12-04T13:46:39.454Z,23.03
2022-12-04T13:49:18.197Z,23.06
2022-12-04T13:51:46.562Z,23.05
2022-12-04T13:54:13.184Z,23.05
2022-12-04T13:56:45.074Z,23.05
2022-12-04T13:59:26.987Z,23.04
2022-12-04T14:02:07.732Z,23.04
2022-12-04T14:04:46.877Z,23.03
2022-12-04T14:07:35.802Z,23.01
2022-12-04T14:10:23.722Z,23.01
2022-12-04T14:13:15.483Z,23.00
2022-12-04T14:15:42.374Z,22.99
2022-12-04T14:18:12.198Z,22.98
2022-12-04T14:20:40.593Z,22.98
2022-12-04T14:23:34.057Z,23.01
2022-12-04T14:26:00.931Z,23.02
2022-12-04T14:28:31.553Z,23.02
2022-12-04T14:31:17.060Z,22.99
2022-12-04T14:33:49.811Z,23.02
2022-12-04T14:36:20.388Z,23.01
2022-12-04T14:38:49.160Z,22.99
2022-12-04T14:41:25.570Z,23.01
2022-12-04T14:43:53.724Z,23.00
2022-12-04T14:46:41.355Z,23.01
2022-12-04T14:49:42.438Z,23.01
2022-12-04T14:52:30.202Z,22.98
2022-12-04T14:55:24.825Z,22.99
2022-12-04T14:58:15.971Z,22.98
2022-12-04T15:00:50.230Z,22.98
2022-12-04T15:03:17.029Z,22.96
2022-12-04T15:05:44.986Z,22.96
2022-12-04T15:08:13.919Z,22.97
2022-12-04T15:10:48.469Z,22.95
2022-12-04T15:13:31.652Z,22.96
2022-12-04T15:16:07.868Z,22.94
2022-12-04T15:18:39.433Z,22.94
2022-12-04T15:21:10.605Z,22.94
2022-12-04T15:23:40.726Z,22.95
2022-12-04T15:26:22.091Z,22.97
2022-12-04T15:29:00.643Z,22.99
2022-12-04T15:31:34.481Z,23.01
2022-12-04T15:34:06.322Z,23.02
2022-12-04T15:37:01.375Z,23.04
2022-12-04T15:39:49.079Z,23.05
2022-12-04T15:42:17.405Z,23.06
2022-12-04T15:45:00.522Z,23.08
2022-12-04T15:47:33.131Z,23.09
2022-12-04T15:50:16.396Z,23.10
2022-12-04T15:52:54.070Z,23.10
2022-12-04T15:55:23.854Z,23.10
2022-12-04T15:57:57.667Z,23.11
2022-12-04T16:00:30.242Z,23.12
2022-12-04T16:02:58.053Z,23.12
2022-12-04T16:05:30.621Z,23.12
2022-12-04T16:08:21.894Z,23.13
2022-12-04T16:11:05.292Z,23.14
2022-12-04T16:13:38.430Z,23.15
2022-12-04T16:16:08.276Z,23.16
2022-12-04T16:18:35.265Z,23.18
2022-12-04T16:21:02.095Z,23.18
2022-12-04T16:23:28.969Z,23.20
2022-12-04T16:25:57.034Z,23.20
2022-12-04T16:28:24.094Z,23.21
2022-12-04T16:30:51.813Z,23.23
2022-12-04T16:33:18.972Z,23.23
2022-12-04T16:35:45.698Z,23.24
2022-12-04T16:38:15.484Z,23.25
2022-12-04T16:40:43.273Z,23.25
2022-12-04T16:43:13.626Z,23.26
2022-12-04T16:45:45.457Z,23.27
2022-12-04T16:48:12.326Z,23.18
2022-12-04T16:50:39.078Z,23.12
2022-12-04T16:53:05.778Z,23.09
2022-12-04T16:55:39.782Z,23.05
2022-12-04T16:58:07.033Z,23.04
2022-12-04T17:00:56.869Z,23.04
2022-12-04T17:03:31.888Z,23.02
2022-12-04T17:06:00.222Z,23.01
2022-12-04T17:08:28.116Z,23.00
2022-12-04T17:10:55.764Z,23.01
2022-12-04T17:13:23.204Z,23.01
2022-12-04T17:15:50.018Z,23.02
2022-12-04T17:18:21.121Z,23.02
2022-12-04T17:20:48.656Z,23.02
2022-12-04T17:23:15.416Z,23.02
2022-12-04T17:25:42.162Z,23.01
2022-12-04T17:28:09.053Z,23.03
2022-12-04T17:30:36.469Z,23.04
2022-12-04T17:33:04.433Z,23.05
2022-12-04T17:35:31.263Z,23.05
2022-12-04T17:38:06.586Z,23.06
2022-12-04T17:40:36.451Z,23.07
2022-12-04T17:43:03.271Z,23.08
2022-12-04T17:45:30.419Z,23.10
2022-12-04T17:47:57.083Z,23.09
2022-12-04T17:50:48.343Z,23.12
2022-12-04T17:53:37.488Z,23.11
2022-12-04T17:56:06.919Z,23.11
2022-12-04T17:58:37.966Z,23.09
2022-12-04T18:01:09.828Z,23.09
2022-12-04T18:03:37.841Z,23.07
2022-12-04T18:06:19.074Z,23.09
2022-12-04T18:08:50.106Z,23.07
2022-12-04T18:11:19.272Z,23.07
2022-12-04T18:13:46.950Z,23.08
2022-12-04T18:16:14.080Z,23.08
2022-12-04T18:18:40.928Z,23.09
2022-12-04T18:21:12.075Z,23.12
2022-12-04T18:23:40.006Z,23.13
2022-12-04T18:26:06.895Z,23.15
2022-12-04T18:28:34.817Z,23.17
2022-12-04T18:31:06.744Z,23.19
2022-12-04T18:33:36.192Z,23.21
2022-12-04T18:36:04.569Z,23.22
2022-12-04T18:38:32.426Z,23.23
2022-12-04T18:41:04.226Z,23.25
2022-12-04T18:43:34.305Z,23.27
2022-12-04T18:46:07.285Z,23.29
2022-12-04T18:48:36.872Z,23.29
2022-12-04T18:51:26.535Z,23.32
2022-12-04T18:53:55.992Z,23.32
2022-12-04T18:56:23.278Z,23.33
2022-12-04T18:58:50.454Z,23.32
2022-12-04T19:01:19.885Z,23.33
2022-12-04T19:03:47.987Z,23.32
2022-12-04T19:06:14.966Z,23.32
2022-12-04T19:08:43.424Z,23.33
2022-12-04T19:11:15.577Z,23.32
2022-12-04T19:13:43.044Z,23.31
2022-12-04T19:16:15.207Z,23.31
2022-12-04T19:18:42.865Z,23.29
2022-12-04T19:21:09.571Z,23.29
2022-12-04T19:23:36.401Z,23.28
2022-12-04T19:26:03.331Z,23.27
2022-12-04T19:28:30.671Z,23.27
2022-12-04T19:30:57.687Z,23.28
2022-12-04T19:33:25.393Z,23.29
2022-12-04T19:36:03.905Z,23.29
2022-12-04T19:38:31.789Z,23.28
2022-12-04T19:41:12.606Z,23.29
2022-12-04T19:43:41.595Z,23.29
2022-12-04T19:46:10.118Z,23.28
2022-12-04T19:48:37.540Z,23.30
2022-12-04T19:51:10.825Z,23.30
2022-12-04T19:53:41.142Z,23.30
2022-12-04T19:56:16.552Z,23.30
2022-12-04T19:58:43.473Z,23.30
2022-12-04T20:01:16.397Z,23.29
2022-12-04T20:03:43.187Z,23.29
2022-12-04T20:06:13.366Z,23.30
2022-12-04T20:08:41.358Z,23.29
2022-12-04T20:11:11.457Z,23.30
2022-12-04T20:13:39.143Z,23.30
2022-12-04T20:16:08.551Z,23.30
2022-12-04T20:18:37.405Z,23.31
2022-12-04T20:21:04.918Z,23.30
2022-12-04T20:23:31.728Z,23.31
2022-12-04T20:26:04.658Z,23.33
2022-12-04T20:28:31.718Z,23.32
2022-12-04T20:30:59.101Z,23.33
2022-12-04T20:33:26.179Z,23.34
2022-12-04T20:35:52.987Z,23.35
2022-12-04T20:38:19.755Z,23.34
2022-12-04T20:40:46.608Z,23.35
2022-12-04T20:43:13.338Z,23.36
2022-12-04T20:45:40.083Z,23.36
2022-12-04T20:48:06.877Z,23.38
2022-12-04T20:50:33.640Z,23.39
2022-12-04T20:53:00.335Z,23.40
2022-12-04T20:55:27.259Z,23.41
2022-12-04T20:57:53.831Z,23.41
2022-12-04T21:00:20.606Z,23.42
2022-12-04T21:02:47.487Z,23.42
2022-12-04T21:18:41.426Z,23.45
2022-12-04T21:21:08.454Z,23.44
2022-12-04T21:23:35.219Z,23.43
2022-12-04T21:26:02.162Z,23.44
2022-12-04T21:28:28.892Z,23.44
2022-12-04T21:31:01.586Z,23.44
2022-12-04T21:36:10.293Z,23.43
2022-12-04T21:38:39.631Z,23.44
2022-12-04T21:41:08.034Z,23.44
2022-12-04T21:43:36.749Z,23.45
2022-12-04T21:46:09.565Z,23.44
2022-12-04T21:48:36.565Z,23.44
2022-12-04T21:51:21.264Z,23.45
2022-12-04T21:53:54.106Z,23.45
2022-12-04T21:56:22.289Z,23.46
2022-12-04T21:58:49.032Z,23.49
2022-12-04T22:01:17.657Z,23.52
2022-12-04T22:03:44.618Z,23.54
2022-12-04T22:06:11.592Z,23.59
2022-12-04T22:08:40.162Z,23.63
2022-12-04T22:11:11.721Z,23.67
2022-12-04T22:13:39.230Z,23.70
2022-12-04T22:16:10.256Z,23.76
2022-12-04T22:18:37.531Z,23.79
2022-12-04T22:21:07.349Z,23.80
2022-12-04T22:23:34.219Z,23.84
2022-12-04T22:26:15.957Z,23.88
2022-12-04T22:28:42.950Z,23.89
2022-12-04T22:31:17.360Z,23.93
2022-12-04T22:33:47.706Z,23.96
2022-12-04T22:36:17.066Z,23.98
2022-12-04T22:39:06.025Z,24.00
2022-12-04T22:41:30.807Z,24.02
2022-12-04T22:43:57.509Z,24.04
2022-12-04T22:46:24.231Z,24.05
2022-12-04T22:48:50.985Z,24.07
2022-12-04T22:51:20.505Z,24.08
2022-12-04T22:53:53.093Z,24.09
2022-12-04T22:56:22.699Z,24.10
2022-12-04T22:58:50.224Z,24.11
2022-12-04T23:01:29.569Z,24.13
2022-12-04T23:03:57.344Z,24.13
2022-12-04T23:06:26.450Z,24.14
2022-12-04T23:08:58.806Z,24.15
2022-12-04T23:11:27.227Z,24.14
2022-12-04T23:13:56.652Z,24.16
2022-12-04T23:16:24.400Z,24.16
2022-12-04T23:18:51.757Z,24.16
2022-12-04T23:21:20.015Z,24.18
2022-12-04T23:23:48.127Z,24.17
2022-12-04T23:26:18.612Z,24.20
2022-12-04T23:28:45.454Z,24.17
2022-12-04T23:31:12.670Z,24.19
2022-12-04T23:33:40.839Z,24.20
2022-12-04T23:36:09.596Z,24.21
2022-12-04T23:38:37.919Z,24.21
2022-12-04T23:41:06.964Z,24.22
2022-12-04T23:43:34.750Z,24.23
2022-12-04T23:46:05.764Z,24.23
2022-12-04T23:48:36.092Z,24.24
2022-12-04T23:51:03.025Z,24.24
2022-12-04T23:53:29.797Z,24.24
2022-12-04T23:56:06.269Z,24.25
2022-12-04T23:58:34.476Z,24.26
